createdAt,value
2018-11-23T00:00:05.200Z,89.80
2018-11-23T00:01:05.370Z,89.80
2018-11-23T00:02:05.402Z,89.80
2018-11-23T00:03:07.939Z,89.70
2018-11-23T00:04:05.810Z,89.70
2018-11-23T00:05:08.303Z,89.80
2018-11-23T00:06:05.130Z,89.80
2018-11-23T00:07:05.206Z,89.80
2018-11-23T00:08:08.076Z,89.60
2018-11-23T00:09:08.560Z,90.10
2018-11-23T00:10:05.425Z,89.80
2018-11-23T00:11:05.498Z,89.60
2018-11-23T00:12:05.596Z,89.50
2018-11-23T00:13:05.595Z,89.50
2018-11-23T00:14:08.209Z,90.00
2018-11-23T00:15:05.071Z,90.00
2018-11-23T00:16:07.726Z,90.00
2018-11-23T00:17:08.148Z,90.80
2018-11-23T00:18:05.032Z,90.80
2018-11-23T00:19:07.503Z,90.80
2018-11-23T00:20:05.329Z,90.80
2018-11-23T00:21:05.311Z,90.10
2018-11-23T00:22:05.375Z,90.80
2018-11-23T00:23:05.595Z,90.00
2018-11-23T00:24:05.597Z,90.00
2018-11-23T00:25:08.088Z,90.60
2018-11-23T00:26:06.041Z,90.60
2018-11-23T00:27:07.625Z,90.40
2018-11-23T00:28:05.407Z,89.60
2018-11-23T00:29:07.965Z,90.00
2018-11-23T00:30:05.998Z,90.00
2018-11-23T00:31:07.691Z,90.10
2018-11-23T00:32:05.664Z,90.30
2018-11-23T00:33:05.637Z,90.00
2018-11-23T00:34:05.618Z,90.00
2018-11-23T00:35:05.689Z,90.00
2018-11-23T00:36:05.727Z,90.00
2018-11-23T00:37:08.262Z,89.90
2018-11-23T00:38:07.643Z,89.90
2018-11-23T00:39:05.818Z,89.90
2018-11-23T00:40:05.785Z,89.80
2018-11-23T00:41:05.808Z,89.90
2018-11-23T00:42:07.833Z,89.90
2018-11-23T00:43:05.786Z,89.90
2018-11-23T00:44:05.829Z,89.90
2018-11-23T00:45:05.781Z,89.90
2018-11-23T00:46:08.249Z,89.90
2018-11-23T00:47:07.684Z,89.90
2018-11-23T00:48:05.594Z,89.90
2018-11-23T00:49:10.704Z,89.90
2018-11-23T00:50:05.554Z,89.90
2018-11-23T00:51:05.738Z,89.90
2018-11-23T00:52:08.397Z,89.90
2018-11-23T00:53:05.279Z,89.80
2018-11-23T00:54:05.289Z,89.80
2018-11-23T00:55:05.327Z,89.80
2018-11-23T00:56:05.353Z,89.80
2018-11-23T00:57:05.327Z,89.80
2018-11-23T00:58:05.472Z,89.80
2018-11-23T00:59:08.073Z,89.80
2018-11-23T01:00:05.982Z,89.80
2018-11-23T01:01:07.490Z,89.80
2018-11-23T01:02:07.975Z,89.80
2018-11-23T01:03:05.937Z,89.80
2018-11-23T01:04:07.486Z,90.30
2018-11-23T01:05:05.378Z,89.70
2018-11-23T01:06:05.450Z,89.80
2018-11-23T01:07:05.605Z,89.70
2018-11-23T01:08:05.717Z,89.80
2018-11-23T01:09:05.772Z,90.40
2018-11-23T01:10:05.790Z,89.60
2018-11-23T01:11:05.792Z,89.60
2018-11-23T01:12:05.790Z,89.60
2018-11-23T01:13:05.787Z,89.70
2018-11-23T01:14:05.800Z,89.70
2018-11-23T01:15:08.248Z,89.70
2018-11-23T01:16:05.230Z,89.70
2018-11-23T01:17:05.286Z,89.60
2018-11-23T01:18:07.755Z,89.60
2018-11-23T01:19:05.589Z,89.60
2018-11-23T01:20:05.544Z,89.50
2018-11-23T01:21:05.541Z,89.50
2018-11-23T01:22:05.707Z,89.50
2018-11-23T01:23:05.733Z,89.60
2018-11-23T01:24:08.375Z,89.50
2018-11-23T01:25:07.809Z,89.50
2018-11-23T01:26:05.664Z,89.50
2018-11-23T01:27:05.650Z,89.50
2018-11-23T01:28:05.683Z,89.50
2018-11-23T01:29:04.978Z,89.50
2018-11-23T01:30:07.741Z,89.50
2018-11-23T01:31:05.653Z,89.50
2018-11-23T01:32:05.751Z,89.50
2018-11-23T01:33:05.727Z,89.50
2018-11-23T01:34:08.284Z,89.50
2018-11-23T01:35:07.657Z,89.50
2018-11-23T01:36:10.747Z,89.50
2018-11-23T01:37:05.623Z,89.50
2018-11-23T01:38:05.611Z,89.50
2018-11-23T01:39:05.655Z,89.50
2018-11-23T01:40:05.631Z,89.40
2018-11-23T01:41:08.158Z,89.40
2018-11-23T01:42:05.025Z,89.40
2018-11-23T01:43:07.613Z,89.30
2018-11-23T01:44:08.018Z,89.30
2018-11-23T01:45:08.317Z,89.30
2018-11-23T01:46:05.127Z,89.30
2018-11-23T01:47:05.165Z,89.30
2018-11-23T01:48:05.241Z,89.30
2018-11-23T01:49:10.367Z,89.30
2018-11-23T01:50:05.313Z,89.20
2018-11-23T01:51:05.371Z,89.30
2018-11-23T01:52:08.148Z,89.30
2018-11-23T01:53:07.662Z,89.30
2018-11-23T01:54:05.598Z,89.20
2018-11-23T01:55:05.619Z,89.30
2018-11-23T01:56:05.968Z,89.30
2018-11-23T01:57:04.977Z,89.30
2018-11-23T01:58:05.048Z,89.40
2018-11-23T01:59:07.745Z,89.20
2018-11-23T02:00:05.579Z,89.20
2018-11-23T02:01:08.118Z,89.20
2018-11-23T02:02:10.073Z,89.10
2018-11-23T02:03:05.935Z,89.10
2018-11-23T02:04:05.273Z,89.10
2018-11-23T02:05:05.320Z,89.00
2018-11-23T02:06:05.465Z,88.90
2018-11-23T02:07:05.480Z,88.90
2018-11-23T02:08:08.003Z,88.70
2018-11-23T02:09:05.863Z,88.70
2018-11-23T02:10:05.933Z,88.80
2018-11-23T02:11:07.551Z,89.00
2018-11-23T02:12:05.425Z,89.00
2018-11-23T02:13:05.437Z,89.00
2018-11-23T02:14:05.376Z,88.60
2018-11-23T02:15:05.335Z,88.70
2018-11-23T02:16:05.331Z,88.70
2018-11-23T02:17:05.401Z,89.10
2018-11-23T02:18:07.972Z,89.10
2018-11-23T02:19:08.437Z,89.40
2018-11-23T02:20:05.307Z,89.40
2018-11-23T02:21:05.316Z,89.20
2018-11-23T02:22:07.827Z,89.20
2018-11-23T02:23:05.661Z,89.20
2018-11-23T02:24:05.660Z,89.40
2018-11-23T02:25:05.663Z,89.20
2018-11-23T02:26:08.254Z,89.50
2018-11-23T02:27:07.637Z,88.80
2018-11-23T02:28:05.516Z,89.40
2018-11-23T02:29:08.410Z,88.80
2018-11-23T02:30:05.244Z,88.70
2018-11-23T02:31:10.300Z,88.70
2018-11-23T02:32:05.215Z,88.80
2018-11-23T02:33:05.300Z,88.70
2018-11-23T02:34:10.442Z,89.10
2018-11-23T02:35:08.078Z,89.10
2018-11-23T02:36:04.994Z,89.10
2018-11-23T02:37:07.642Z,89.10
2018-11-23T02:38:05.594Z,89.10
2018-11-23T02:39:05.604Z,89.20
2018-11-23T02:40:05.594Z,89.00
2018-11-23T02:41:05.552Z,88.80
2018-11-23T02:42:05.590Z,88.70
2018-11-23T02:43:05.603Z,88.80
2018-11-23T02:44:05.599Z,88.80
2018-11-23T02:45:08.108Z,88.80
2018-11-23T02:46:10.078Z,88.80
2018-11-23T02:47:07.512Z,88.80
2018-11-23T02:48:05.436Z,88.80
2018-11-23T02:49:05.615Z,88.80
2018-11-23T02:50:05.644Z,88.80
2018-11-23T02:51:05.667Z,88.80
2018-11-23T02:52:05.604Z,88.80
2018-11-23T02:53:05.630Z,88.90
2018-11-23T02:54:05.575Z,88.80
2018-11-23T02:55:08.169Z,89.50
2018-11-23T02:56:07.662Z,89.60
2018-11-23T02:57:10.636Z,89.30
2018-11-23T02:58:05.477Z,89.20
2018-11-23T02:59:05.657Z,89.20
2018-11-23T03:00:05.812Z,88.90
2018-11-23T03:01:06.041Z,88.90
2018-11-23T03:02:05.684Z,89.30
2018-11-23T03:03:10.910Z,89.30
2018-11-23T03:04:08.487Z,89.10
2018-11-23T03:05:05.381Z,89.10
2018-11-23T03:06:05.365Z,89.60
2018-11-23T03:07:05.341Z,88.90
2018-11-23T03:08:05.387Z,88.80
2018-11-23T03:09:05.425Z,89.50
2018-11-23T03:10:07.962Z,88.70
2018-11-23T03:11:05.885Z,88.70
2018-11-23T03:12:08.590Z,88.70
2018-11-23T03:13:05.526Z,88.70
2018-11-23T03:14:08.021Z,88.60
2018-11-23T03:15:06.035Z,88.60
2018-11-23T03:16:05.068Z,88.60
2018-11-23T03:17:07.587Z,88.60
2018-11-23T03:18:05.498Z,88.60
2018-11-23T03:19:05.532Z,88.70
2018-11-23T03:20:05.482Z,88.60
2018-11-23T03:21:07.963Z,88.60
2018-11-23T03:22:08.456Z,88.70
2018-11-23T03:23:05.312Z,88.70
2018-11-23T03:24:05.289Z,88.60
2018-11-23T03:25:07.801Z,88.60
2018-11-23T03:26:08.307Z,88.60
2018-11-23T03:27:10.403Z,88.50
2018-11-23T03:28:07.984Z,89.00
2018-11-23T03:29:05.634Z,89.10
2018-11-23T03:30:05.841Z,88.90
2018-11-23T03:31:12.819Z,88.90
2018-11-23T03:32:05.999Z,88.80
2018-11-23T03:33:05.076Z,88.40
2018-11-23T03:34:05.068Z,89.20
2018-11-23T03:35:05.056Z,88.70
2018-11-23T03:36:05.039Z,89.20
2018-11-23T03:37:05.049Z,88.70
2018-11-23T03:38:05.118Z,88.70
2018-11-23T03:39:05.240Z,88.60
2018-11-23T03:40:05.227Z,88.60
2018-11-23T03:41:10.417Z,88.60
2018-11-23T03:42:05.295Z,88.60
2018-11-23T03:43:07.781Z,88.50
2018-11-23T03:44:05.639Z,88.40
2018-11-23T03:45:08.126Z,88.30
2018-11-23T03:46:05.067Z,88.40
2018-11-23T03:47:05.232Z,89.00
2018-11-23T03:48:05.243Z,88.40
2018-11-23T03:49:07.820Z,89.00
2018-11-23T03:50:05.690Z,88.90
2018-11-23T03:51:05.744Z,88.30
2018-11-23T03:52:05.717Z,88.50
2018-11-23T03:53:05.812Z,88.60
2018-11-23T03:54:05.815Z,89.00
2018-11-23T03:55:08.310Z,88.80
2018-11-23T03:56:07.664Z,88.80
2018-11-23T03:57:05.681Z,87.70
2018-11-23T03:58:08.287Z,87.70
2018-11-23T03:59:05.269Z,87.60
2018-11-23T04:00:08.000Z,88.70
2018-11-23T04:01:08.438Z,88.60
2018-11-23T04:02:05.447Z,87.60
2018-11-23T04:03:05.471Z,87.90
2018-11-23T04:04:05.455Z,87.70
2018-11-23T04:05:05.436Z,87.70
2018-11-23T04:06:05.397Z,88.40
2018-11-23T04:07:05.391Z,87.40
2018-11-23T04:08:05.415Z,87.40
2018-11-23T04:09:05.482Z,88.10
2018-11-23T04:10:08.210Z,87.20
2018-11-23T04:11:07.726Z,87.20
2018-11-23T04:12:05.616Z,87.10
2018-11-23T04:13:08.638Z,87.20
2018-11-23T04:14:05.645Z,87.10
2018-11-23T04:15:08.348Z,87.20
2018-11-23T04:16:05.223Z,87.20
2018-11-23T04:17:05.421Z,87.20
2018-11-23T04:18:05.521Z,87.20
2018-11-23T04:19:08.197Z,86.70
2018-11-23T04:20:05.240Z,86.70
2018-11-23T04:21:05.219Z,87.70
2018-11-23T04:22:10.305Z,86.90
2018-11-23T04:23:05.208Z,86.90
2018-11-23T04:24:07.712Z,86.80
2018-11-23T04:25:10.795Z,86.90
2018-11-23T04:26:05.850Z,86.90
2018-11-23T04:27:08.395Z,86.60
2018-11-23T04:28:07.736Z,86.60
2018-11-23T04:29:05.584Z,86.60
2018-11-23T04:30:05.731Z,86.40
2018-11-23T04:31:05.882Z,86.40
2018-11-23T04:32:04.953Z,86.40
2018-11-23T04:33:07.542Z,86.40
2018-11-23T04:34:05.485Z,86.30
2018-11-23T04:35:05.680Z,86.40
2018-11-23T04:36:10.845Z,86.00
2018-11-23T04:37:05.812Z,86.00
2018-11-23T04:38:05.999Z,86.00
2018-11-23T04:39:05.004Z,86.10
2018-11-23T04:40:05.000Z,85.90
2018-11-23T04:41:07.890Z,86.00
2018-11-23T04:42:05.720Z,86.10
2018-11-23T04:43:08.249Z,86.10
2018-11-23T04:44:07.615Z,86.20
2018-11-23T04:45:08.131Z,86.10
2018-11-23T04:46:05.090Z,86.10
2018-11-23T04:47:07.607Z,86.30
2018-11-23T04:48:05.539Z,86.30
2018-11-23T04:49:05.624Z,86.40
2018-11-23T04:50:05.662Z,86.40
2018-11-23T04:51:05.657Z,86.30
2018-11-23T04:52:05.756Z,86.20
2018-11-23T04:53:10.823Z,86.20
2018-11-23T04:54:05.834Z,86.20
2018-11-23T04:55:05.822Z,86.10
2018-11-23T04:56:05.784Z,86.10
2018-11-23T04:57:05.861Z,86.10
2018-11-23T04:58:05.958Z,86.20
2018-11-23T04:59:07.609Z,86.80
2018-11-23T05:00:05.670Z,86.70
2018-11-23T05:01:05.773Z,86.80
2018-11-23T05:02:05.854Z,86.90
2018-11-23T05:03:05.881Z,86.70
2018-11-23T05:04:05.927Z,86.10
2018-11-23T05:05:07.501Z,86.70
2018-11-23T05:06:07.925Z,86.80
2018-11-23T05:07:05.978Z,86.80
2018-11-23T05:08:07.521Z,85.90
2018-11-23T05:09:08.040Z,86.40
2018-11-23T05:10:07.659Z,86.40
2018-11-23T05:11:05.588Z,86.40
2018-11-23T05:12:08.228Z,86.30
2018-11-23T05:13:05.314Z,86.30
2018-11-23T05:14:10.648Z,86.30
2018-11-23T05:15:05.526Z,86.30
2018-11-23T05:16:05.509Z,86.20
2018-11-23T05:17:08.177Z,86.20
2018-11-23T05:18:07.632Z,85.80
2018-11-23T05:19:08.182Z,86.10
2018-11-23T05:20:05.229Z,86.10
2018-11-23T05:21:05.238Z,86.00
2018-11-23T05:22:05.274Z,85.00
2018-11-23T05:23:05.249Z,84.90
2018-11-23T05:24:07.698Z,84.90
2018-11-23T05:25:06.191Z,84.90
2018-11-23T05:26:05.249Z,85.40
2018-11-23T05:27:05.379Z,85.10
2018-11-23T05:28:05.355Z,85.30
2018-11-23T05:29:07.898Z,85.80
2018-11-23T05:30:05.772Z,85.80
2018-11-23T05:31:08.446Z,85.80
2018-11-23T05:32:05.390Z,85.80
2018-11-23T05:33:05.423Z,85.80
2018-11-23T05:34:05.503Z,85.80
2018-11-23T05:35:08.069Z,85.10
2018-11-23T05:36:05.939Z,85.00
2018-11-23T05:37:06.036Z,85.70
2018-11-23T05:38:05.016Z,84.90
2018-11-23T05:39:07.579Z,84.50
2018-11-23T05:40:05.507Z,84.70
2018-11-23T05:41:05.584Z,85.70
2018-11-23T05:42:08.242Z,85.90
2018-11-23T05:43:05.063Z,85.70
2018-11-23T05:44:04.987Z,85.90
2018-11-23T05:45:07.648Z,84.70
2018-11-23T05:46:10.590Z,84.50
2018-11-23T05:47:05.443Z,84.50
2018-11-23T05:48:05.413Z,84.50
2018-11-23T05:49:08.362Z,85.30
2018-11-23T05:50:05.308Z,85.40
2018-11-23T05:51:05.373Z,84.30
2018-11-23T05:52:05.444Z,84.20
2018-11-23T05:53:10.476Z,85.50
2018-11-23T05:54:05.417Z,85.50
2018-11-23T05:55:08.090Z,85.70
2018-11-23T05:56:07.514Z,85.70
2018-11-23T05:57:05.332Z,85.70
2018-11-23T05:58:05.444Z,84.80
2018-11-23T05:59:07.962Z,84.70
2018-11-23T06:00:05.935Z,84.80
2018-11-23T06:01:08.542Z,84.50
2018-11-23T06:02:07.939Z,84.50
2018-11-23T06:03:08.382Z,84.40
2018-11-23T06:04:07.871Z,84.40
2018-11-23T06:05:08.386Z,84.40
2018-11-23T06:06:05.288Z,84.40
2018-11-23T06:07:07.800Z,84.40
2018-11-23T06:08:05.643Z,84.40
2018-11-23T06:09:08.126Z,84.40
2018-11-23T06:10:04.981Z,84.40
2018-11-23T06:11:07.508Z,84.60
2018-11-23T06:12:05.391Z,84.60
2018-11-23T06:13:05.389Z,84.60
2018-11-23T06:14:05.355Z,84.70
2018-11-23T06:15:05.364Z,84.60
2018-11-23T06:16:05.417Z,84.60
2018-11-23T06:17:05.436Z,84.50
2018-11-23T06:18:05.341Z,84.50
2018-11-23T06:19:07.869Z,84.50
2018-11-23T06:20:08.469Z,84.50
2018-11-23T06:21:05.310Z,84.50
2018-11-23T06:22:05.223Z,84.50
2018-11-23T06:23:07.775Z,84.50
2018-11-23T06:24:05.574Z,84.50
2018-11-23T06:25:05.833Z,84.50
2018-11-23T06:26:08.547Z,86.30
2018-11-23T06:27:07.893Z,84.80
2018-11-23T06:28:05.828Z,84.80
2018-11-23T06:29:07.945Z,84.90
2018-11-23T06:30:05.966Z,84.90
2018-11-23T06:31:05.002Z,84.90
2018-11-23T06:32:05.167Z,84.90
2018-11-23T06:33:07.904Z,84.70
2018-11-23T06:34:08.298Z,84.70
2018-11-23T06:35:07.747Z,84.60
2018-11-23T06:36:10.672Z,84.70
2018-11-23T06:37:08.166Z,84.60
2018-11-23T06:38:05.203Z,84.60
2018-11-23T06:39:07.830Z,84.40
2018-11-23T06:40:08.265Z,84.60
2018-11-23T06:41:10.787Z,84.50
2018-11-23T06:42:05.974Z,84.50
2018-11-23T06:43:05.859Z,84.50
2018-11-23T06:44:08.459Z,84.40
2018-11-23T06:45:10.541Z,84.70
2018-11-23T06:46:08.069Z,86.20
2018-11-23T06:47:10.015Z,85.20
2018-11-23T06:48:06.116Z,85.20
2018-11-23T06:49:05.350Z,86.40
2018-11-23T06:50:05.405Z,86.20
2018-11-23T06:51:08.033Z,84.60
2018-11-23T06:52:05.923Z,84.60
2018-11-23T06:53:05.921Z,85.20
2018-11-23T06:54:14.342Z,86.40
2018-11-23T06:55:05.441Z,86.30
2018-11-23T06:56:05.388Z,86.30
2018-11-23T06:57:05.348Z,86.20
2018-11-23T06:58:05.516Z,86.40
2018-11-23T06:59:08.180Z,86.40
2018-11-23T07:00:05.157Z,86.40
2018-11-23T07:01:10.425Z,86.80
2018-11-23T07:02:05.356Z,86.70
2018-11-23T07:03:08.196Z,86.70
2018-11-23T07:04:05.088Z,86.80
2018-11-23T07:05:07.632Z,86.70
2018-11-23T07:06:05.529Z,86.70
2018-11-23T07:07:05.486Z,85.70
2018-11-23T07:08:05.542Z,85.70
2018-11-23T07:09:05.536Z,87.00
2018-11-23T07:10:05.624Z,87.10
2018-11-23T07:11:08.225Z,87.20
2018-11-23T07:12:07.714Z,87.20
2018-11-23T07:13:08.295Z,87.20
2018-11-23T07:14:05.181Z,87.20
2018-11-23T07:15:05.316Z,86.50
2018-11-23T07:16:05.343Z,86.80
2018-11-23T07:17:07.848Z,85.00
2018-11-23T07:18:05.757Z,85.00
2018-11-23T07:19:08.308Z,86.80
2018-11-23T07:20:05.283Z,86.80
2018-11-23T07:21:10.562Z,87.20
2018-11-23T07:22:07.947Z,86.90
2018-11-23T07:23:08.483Z,86.50
2018-11-23T07:24:10.584Z,84.70
2018-11-23T07:25:07.941Z,87.30
2018-11-23T07:26:05.822Z,87.50
2018-11-23T07:27:05.840Z,87.60
2018-11-23T07:28:05.789Z,85.20
2018-11-23T07:29:05.894Z,87.20
2018-11-23T07:30:05.876Z,86.50
2018-11-23T07:31:05.900Z,86.70
2018-11-23T07:32:05.933Z,86.90
2018-11-23T07:33:06.120Z,85.90
2018-11-23T07:34:05.179Z,86.90
2018-11-23T07:35:07.821Z,87.50
2018-11-23T07:36:05.682Z,87.40
2018-11-23T07:37:08.331Z,86.60
2018-11-23T07:38:05.214Z,86.50
2018-11-23T07:39:05.180Z,86.60
2018-11-23T07:40:05.152Z,86.50
2018-11-23T07:41:07.695Z,86.60
2018-11-23T07:42:05.538Z,86.60
2018-11-23T07:43:05.532Z,86.70
2018-11-23T07:44:10.555Z,86.60
2018-11-23T07:45:07.942Z,86.60
2018-11-23T07:46:05.774Z,86.60
2018-11-23T07:47:05.814Z,86.60
2018-11-23T07:48:08.315Z,86.80
2018-11-23T07:49:07.782Z,86.60
2018-11-23T07:50:05.854Z,85.40
2018-11-23T07:51:06.069Z,85.20
2018-11-23T07:52:05.076Z,85.40
2018-11-23T07:53:05.012Z,85.40
2018-11-23T07:54:07.543Z,85.50
2018-11-23T07:55:05.412Z,85.40
2018-11-23T07:56:05.437Z,85.50
2018-11-23T07:57:07.979Z,85.30
2018-11-23T07:58:05.825Z,85.40
2018-11-23T07:59:05.979Z,86.70
2018-11-23T08:00:07.536Z,85.40
2018-11-23T08:01:05.478Z,86.60
2018-11-23T08:02:05.481Z,86.60
2018-11-23T08:03:07.979Z,86.70
2018-11-23T08:04:05.840Z,86.70
2018-11-23T08:05:08.436Z,86.80
2018-11-23T08:06:10.380Z,86.80
2018-11-23T08:07:07.793Z,86.40
2018-11-23T08:08:08.170Z,87.10
2018-11-23T08:09:10.092Z,87.10
2018-11-23T08:10:08.571Z,87.20
2018-11-23T08:11:05.676Z,87.10
2018-11-23T08:12:08.261Z,87.30
2018-11-23T08:13:05.076Z,87.30
2018-11-23T08:14:05.174Z,87.20
2018-11-23T08:15:07.691Z,87.30
2018-11-23T08:16:05.686Z,87.30
2018-11-23T08:17:05.919Z,87.40
2018-11-23T08:18:08.505Z,87.20
2018-11-23T08:19:05.422Z,87.10
2018-11-23T08:20:05.577Z,87.20
2018-11-23T08:21:05.689Z,87.40
2018-11-23T08:22:08.218Z,86.40
2018-11-23T08:23:05.067Z,85.90
2018-11-23T08:24:07.590Z,87.20
2018-11-23T08:25:08.050Z,87.40
2018-11-23T08:26:05.995Z,87.40
2018-11-23T08:27:07.455Z,87.00
2018-11-23T08:28:05.289Z,87.00
2018-11-23T08:29:08.326Z,87.00
2018-11-23T08:30:05.231Z,87.00
2018-11-23T08:31:05.412Z,86.80
2018-11-23T08:32:05.557Z,87.10
2018-11-23T08:33:08.245Z,87.50
2018-11-23T08:34:07.663Z,86.70
2018-11-23T08:35:05.654Z,86.70
2018-11-23T08:36:05.886Z,86.80
2018-11-23T08:37:11.034Z,87.20
2018-11-23T08:38:05.949Z,87.20
2018-11-23T08:39:05.927Z,87.30
2018-11-23T08:40:05.934Z,86.70
2018-11-23T08:41:11.023Z,87.30
2018-11-23T08:42:05.910Z,87.40
2018-11-23T08:43:08.461Z,86.60
2018-11-23T08:44:05.355Z,86.70
2018-11-23T08:45:07.952Z,87.00
2018-11-23T08:46:08.426Z,86.70
2018-11-23T08:47:05.312Z,86.70
2018-11-23T08:48:07.934Z,87.20
2018-11-23T08:49:08.301Z,86.70
2018-11-23T08:50:05.152Z,86.70
2018-11-23T08:51:10.256Z,86.60
2018-11-23T08:52:05.101Z,86.60
2018-11-23T08:53:10.151Z,86.70
2018-11-23T08:54:04.983Z,86.60
2018-11-23T08:55:05.069Z,86.80
2018-11-23T08:56:05.102Z,86.70
2018-11-23T08:57:05.134Z,86.60
2018-11-23T08:58:05.188Z,86.50
2018-11-23T08:59:05.186Z,86.50
2018-11-23T09:00:07.844Z,86.10
2018-11-23T09:01:05.682Z,86.10
2018-11-23T09:02:05.763Z,86.00
2018-11-23T09:03:08.288Z,86.20
2018-11-23T09:04:05.250Z,86.20
2018-11-23T09:05:07.924Z,86.20
2018-11-23T09:06:05.885Z,86.20
2018-11-23T09:07:05.989Z,86.20
2018-11-23T09:08:05.039Z,86.30
2018-11-23T09:09:05.072Z,86.10
2018-11-23T09:10:05.145Z,86.10
2018-11-23T09:11:05.179Z,86.00
2018-11-23T09:12:07.802Z,86.00
2018-11-23T09:13:05.802Z,86.00
2018-11-23T09:14:08.390Z,85.90
2018-11-23T09:15:07.723Z,85.90
2018-11-23T09:16:05.591Z,85.90
2018-11-23T09:17:05.692Z,85.90
2018-11-23T09:18:05.712Z,86.00
2018-11-23T09:19:08.291Z,86.10
2018-11-23T09:20:10.372Z,86.00
2018-11-23T09:21:07.750Z,86.00
2018-11-23T09:22:05.922Z,86.10
2018-11-23T09:23:05.897Z,86.00
2018-11-23T09:24:08.536Z,86.10
2018-11-23T09:25:05.417Z,86.10
2018-11-23T09:26:05.500Z,86.50
2018-11-23T09:27:05.628Z,86.50
2018-11-23T09:28:05.667Z,86.40
2018-11-23T09:29:05.034Z,87.00
2018-11-23T09:30:07.528Z,85.80
2018-11-23T09:31:05.451Z,85.80
2018-11-23T09:32:05.447Z,86.80
2018-11-23T09:33:05.660Z,86.20
2018-11-23T09:34:08.230Z,86.10
2018-11-23T09:35:07.597Z,86.00
2018-11-23T09:36:05.596Z,85.80
2018-11-23T09:37:05.776Z,86.10
2018-11-23T09:38:05.721Z,86.00
2018-11-23T09:39:08.254Z,85.90
2018-11-23T09:40:05.164Z,85.80
2018-11-23T09:41:10.327Z,85.90
2018-11-23T09:42:07.777Z,86.00
2018-11-23T09:43:05.619Z,86.00
2018-11-23T09:44:08.195Z,85.80
2018-11-23T09:45:05.081Z,85.50
2018-11-23T09:46:05.069Z,85.60
2018-11-23T09:47:10.555Z,85.60
2018-11-23T09:48:05.607Z,85.80
2018-11-23T09:49:05.719Z,85.80
2018-11-23T09:50:08.261Z,86.00
2018-11-23T09:51:07.918Z,86.10
2018-11-23T09:52:05.818Z,86.10
2018-11-23T09:53:05.969Z,86.10
2018-11-23T09:54:07.534Z,85.70
2018-11-23T09:55:08.031Z,85.50
2018-11-23T09:56:08.533Z,85.20
2018-11-23T09:57:05.524Z,85.20
2018-11-23T09:58:05.612Z,85.30
2018-11-23T09:59:08.174Z,85.20
2018-11-23T10:00:07.618Z,85.10
2018-11-23T10:02:05.643Z,85.10
2018-11-23T10:03:08.327Z,85.40
2018-11-23T10:04:07.759Z,85.50
2018-11-23T10:05:10.647Z,85.50
2018-11-23T10:06:05.540Z,85.50
2018-11-23T10:07:08.192Z,85.30
2018-11-23T10:08:05.056Z,85.30
2018-11-23T10:09:05.256Z,85.20
2018-11-23T10:10:07.794Z,85.00
2018-11-23T10:11:05.842Z,85.00
2018-11-23T10:12:05.023Z,85.00
2018-11-23T10:13:05.080Z,84.50
2018-11-23T10:14:10.163Z,84.20
2018-11-23T10:15:05.049Z,84.30
2018-11-23T10:16:07.614Z,84.00
2018-11-23T10:17:08.229Z,82.30
2018-11-23T10:18:05.093Z,83.50
2018-11-23T10:19:10.169Z,83.40
2018-11-23T10:20:07.555Z,83.80
2018-11-23T10:21:05.590Z,82.60
2018-11-23T10:22:05.727Z,83.30
2018-11-23T10:23:05.730Z,83.60
2018-11-23T10:24:05.920Z,83.60
2018-11-23T10:25:05.045Z,83.70
2018-11-23T10:26:07.568Z,83.70
2018-11-23T10:27:07.986Z,83.30
2018-11-23T10:28:08.439Z,83.40
2018-11-23T10:29:07.926Z,83.30
2018-11-23T10:30:05.886Z,83.30
2018-11-23T10:31:08.487Z,82.50
2018-11-23T10:32:05.448Z,82.90
2018-11-23T10:33:08.032Z,83.30
2018-11-23T10:34:08.444Z,83.40
2018-11-23T10:35:05.393Z,83.40
2018-11-23T10:36:05.411Z,83.50
2018-11-23T10:37:05.451Z,83.40
2018-11-23T10:38:06.026Z,83.30
2018-11-23T10:39:08.003Z,83.20
2018-11-23T10:40:07.463Z,83.10
2018-11-23T10:41:05.463Z,81.70
2018-11-23T10:42:08.069Z,83.30
2018-11-23T10:43:05.160Z,83.30
2018-11-23T10:44:05.242Z,83.40
2018-11-23T10:45:07.937Z,83.10
2018-11-23T10:46:10.979Z,83.30
2018-11-23T10:47:08.539Z,81.40
2018-11-23T10:48:05.604Z,81.50
2018-11-23T10:49:05.768Z,82.00
2018-11-23T10:50:08.318Z,81.20
2018-11-23T10:51:05.385Z,82.40
2018-11-23T10:52:08.050Z,80.80
2018-11-23T10:53:07.530Z,82.40
2018-11-23T10:54:07.950Z,82.60
2018-11-23T10:55:06.063Z,81.90
2018-11-23T10:56:05.101Z,82.00
2018-11-23T10:57:07.657Z,82.60
2018-11-23T10:58:05.645Z,82.60
2018-11-23T10:59:07.447Z,82.80
2018-11-23T11:00:07.829Z,82.00
2018-11-23T11:01:08.217Z,82.20
2018-11-23T11:02:07.965Z,82.10
2018-11-23T11:03:05.946Z,82.10
2018-11-23T11:04:05.049Z,82.10
2018-11-23T11:05:05.186Z,82.70
2018-11-23T11:06:05.227Z,82.30
2018-11-23T11:07:10.531Z,82.40
2018-11-23T11:08:13.220Z,82.10
2018-11-23T11:09:05.121Z,82.00
2018-11-23T11:10:05.220Z,82.10
2018-11-23T11:11:05.174Z,82.00
2018-11-23T11:12:05.149Z,82.10
2018-11-23T11:13:07.863Z,82.00
2018-11-23T11:14:05.807Z,81.90
2018-11-23T11:15:05.985Z,82.40
2018-11-23T11:16:07.532Z,82.40
2018-11-23T11:17:07.977Z,82.40
2018-11-23T11:18:05.925Z,82.20
2018-11-23T11:19:05.933Z,81.50
2018-11-23T11:20:06.040Z,81.60
2018-11-23T11:21:10.132Z,81.80
2018-11-23T11:22:05.092Z,82.10
2018-11-23T11:23:07.617Z,82.20
2018-11-23T11:24:05.531Z,82.20
2018-11-23T11:25:05.582Z,81.70
2018-11-23T11:26:08.180Z,81.70
2018-11-23T11:27:05.150Z,81.90
2018-11-23T11:28:05.363Z,81.60
2018-11-23T11:29:05.572Z,81.20
2018-11-23T11:30:08.126Z,81.70
2018-11-23T11:31:05.078Z,81.70
2018-11-23T11:32:05.047Z,81.30
2018-11-23T11:33:05.218Z,81.40
2018-11-23T11:34:07.846Z,81.50
2018-11-23T11:35:05.802Z,81.70
2018-11-23T11:36:08.416Z,81.70
2018-11-23T11:37:07.896Z,81.60
2018-11-23T11:38:05.874Z,81.70
2018-11-23T11:39:05.948Z,81.70
2018-11-23T11:40:08.477Z,81.60
2018-11-23T11:41:08.073Z,81.70
2018-11-23T11:42:05.008Z,81.60
2018-11-23T11:43:05.037Z,80.70
2018-11-23T11:44:05.038Z,81.40
2018-11-23T11:45:05.080Z,81.40
2018-11-23T11:46:05.118Z,81.60
2018-11-23T11:47:07.760Z,80.70
2018-11-23T11:48:05.669Z,80.70
2018-11-23T11:49:05.196Z,80.50
2018-11-23T11:50:05.239Z,81.30
2018-11-23T11:51:05.293Z,81.40
2018-11-23T11:52:08.007Z,81.40
2018-11-23T11:53:05.122Z,81.40
2018-11-23T11:54:07.755Z,81.40
2018-11-23T11:55:05.642Z,81.40
2018-11-23T11:56:05.692Z,81.50
2018-11-23T11:57:05.810Z,81.30
2018-11-23T11:58:08.395Z,81.10
2018-11-23T11:59:05.284Z,81.10
2018-11-23T12:00:05.359Z,81.30
2018-11-23T12:01:07.949Z,81.50
2018-11-23T12:02:10.623Z,81.50
2018-11-23T12:03:05.810Z,81.40
2018-11-23T12:04:05.817Z,81.50
2018-11-23T12:05:05.844Z,81.60
2018-11-23T12:06:08.429Z,80.90
2018-11-23T12:07:05.293Z,81.90
2018-11-23T12:08:05.309Z,80.80
2018-11-23T12:09:10.553Z,81.10
2018-11-23T12:10:05.495Z,80.50
2018-11-23T12:11:05.561Z,80.30
2018-11-23T12:12:05.688Z,80.30
2018-11-23T12:13:05.807Z,81.00
2018-11-23T12:14:05.832Z,80.40
2018-11-23T12:15:08.356Z,80.50
2018-11-23T12:16:05.213Z,80.50
2018-11-23T12:17:07.889Z,80.00
2018-11-23T12:18:05.842Z,80.00
2018-11-23T12:19:08.509Z,80.00
2018-11-23T12:20:05.630Z,80.10
2018-11-23T12:21:05.855Z,80.30
2018-11-23T12:22:05.133Z,80.40
2018-11-23T12:23:05.125Z,80.40
2018-11-23T12:24:07.677Z,80.80
2018-11-23T12:25:08.079Z,80.60
2018-11-23T12:26:07.484Z,80.50
2018-11-23T12:27:08.044Z,80.70
2018-11-23T12:28:06.166Z,80.80
2018-11-23T12:29:05.406Z,80.70
2018-11-23T12:30:05.397Z,81.30
2018-11-23T12:31:07.918Z,81.20
2018-11-23T12:32:05.819Z,81.30
2018-11-23T12:33:05.875Z,81.60
2018-11-23T12:34:06.008Z,81.70
2018-11-23T12:35:12.721Z,81.20
2018-11-23T12:36:05.696Z,81.30
2018-11-23T12:37:05.885Z,81.60
2018-11-23T12:38:05.930Z,81.50
2018-11-23T12:39:08.477Z,81.50
2018-11-23T12:40:05.354Z,81.60
2018-11-23T12:41:05.463Z,81.50
2018-11-23T12:42:10.713Z,81.30
2018-11-23T12:43:05.748Z,81.10
2018-11-23T12:44:05.870Z,81.00
2018-11-23T12:45:05.915Z,80.10
2018-11-23T12:46:07.668Z,80.10
2018-11-23T12:47:08.125Z,80.30
2018-11-23T12:48:05.080Z,80.30
2018-11-23T12:49:05.134Z,79.80
2018-11-23T12:50:05.175Z,80.40
2018-11-23T12:51:05.367Z,80.50
2018-11-23T12:52:05.467Z,80.60
2018-11-23T12:53:06.999Z,80.60